Time;durP1;ratioP1;P1;durP2;ratioP2;P2;SDS_P1;SDS_P2;PMS_P1;PMS_P2;Temp;Humidity;BMP_temperature;BMP_pressure;BME280_temperature;BME280_humidity;BME280_pressure;Samples;Min_cycle;Max_cycle;Signal;HPM_P1;HPM_P2
2020/12/18 00:02:51;;;;;;;16.57;14.87;;;;;;;6.53;68.74;98801.56;8384659;28;20199;-78
2020/12/18 00:06:53;;;;;;;16.97;15.27;;;;;;;6.67;68.94;98803.94;8403543;28;20552;-78
2020/12/18 00:10:55;;;;;;;21.10;15.53;;;;;;;6.71;68.67;98799.59;8402605;28;20206;-78
2020/12/18 00:14:57;;;;;;;16.17;14.50;;;;;;;6.73;68.56;98800.41;8402909;28;20223;-78
2020/12/18 00:18:59;;;;;;;16.97;14.97;;;;;;;6.71;68.78;98797.88;8401128;28;20218;-78
2020/12/18 00:23:00;;;;;;;16.30;14.03;;;;;;;6.81;68.53;98803.72;8402181;28;20282;-78
2020/12/18 00:27:03;;;;;;;17.63;15.83;;;;;;;6.73;68.53;98808.16;8401997;28;20207;-78
2020/12/18 00:31:06;;;;;;;15.93;14.33;;;;;;;6.80;68.68;98807.19;8401047;28;20259;-78
2020/12/18 00:35:09;;;;;;;15.77;14.07;;;;;;;6.81;68.55;98803.72;8410860;28;20638;-80
2020/12/18 00:39:11;;;;;;;16.47;13.87;;;;;;;6.82;68.46;98805.44;8415914;28;20214;-79
2020/12/18 00:43:12;;;;;;;16.13;14.43;;;;;;;6.74;68.83;98800.41;8419597;28;20207;-79
2020/12/18 00:47:15;;;;;;;16.70;14.97;;;;;;;6.40;70.05;98807.78;8416420;28;20207;-79
2020/12/18 00:51:16;;;;;;;16.90;15.20;;;;;;;6.40;69.63;98793.19;8407119;28;20231;-79
2020/12/18 00:55:18;;;;;;;16.27;14.67;;;;;;;6.40;69.82;98810.34;8405494;28;20219;-78
2020/12/18 00:59:20;;;;;;;16.80;15.07;;;;;;;6.56;69.38;98808.41;8406397;28;20203;-79
2020/12/18 01:03:23;;;;;;;15.63;14.07;;;;;;;6.42;70.35;98809.44;8406683;28;20643;-79
2020/12/18 01:07:25;;;;;;;16.23;14.63;;;;;;;6.38;70.45;98814.66;8404469;28;20211;-79
2020/12/18 01:11:27;;;;;;;15.73;14.23;;;;;;;6.37;70.13;98800.94;8404699;28;20222;-78
2020/12/18 01:15:29;;;;;;;15.90;14.30;;;;;;;6.49;69.64;98805.03;8405015;28;20558;-78
2020/12/18 01:19:31;;;;;;;15.30;13.70;;;;;;;6.65;68.75;98815.97;8404594;28;20214;-79
2020/12/18 01:23:33;;;;;;;15.27;13.53;;;;;;;6.70;68.73;98816.78;8404365;28;20199;-79
2020/12/18 01:27:35;;;;;;;15.93;14.30;;;;;;;6.43;69.85;98815.44;8405059;28;20214;-79
2020/12/18 01:31:37;;;;;;;15.50;13.57;;;;;;;6.15;70.71;98818.41;8404621;28;20569;-79
2020/12/18 01:35:39;;;;;;;15.93;14.23;;;;;;;6.34;70.11;98825.84;8405410;28;20233;-79
2020/12/18 01:39:41;;;;;;;15.67;14.07;;;;;;;6.62;69.07;98826.31;8405205;28;20210;-79
2020/12/18 01:43:43;;;;;;;15.33;13.83;;;;;;;6.57;69.21;98828.97;8372316;28;20196;-79
2020/12/18 01:47:45;;;;;;;14.87;13.37;;;;;;;6.56;68.99;98841.84;8372101;28;20208;-79
2020/12/18 01:51:49;;;;;;;16.40;14.70;;;;;;;6.12;70.57;98838.16;8373414;28;20242;-79
2020/12/18 01:55:51;;;;;;;16.63;14.93;;;;;;;6.22;70.45;98839.72;8373546;28;20223;-79
2020/12/18 01:59:53;;;;;;;16.40;14.80;;;;;;;6.22;70.21;98830.28;8374569;28;20568;-79
2020/12/18 02:03:55;;;;;;;16.97;15.13;;;;;;;5.96;70.92;98834.91;8375013;28;20709;-79
2020/12/18 02:08:03;;;;;;;16.43;14.73;;;;;;;5.96;70.64;98840.91;8375460;28;20215;-79
2020/12/18 02:12:06;;;;;;;17.13;15.43;;;;;;;6.03;70.16;98837.38;8376318;28;20190;-79
2020/12/18 02:16:08;;;;;;;17.23;15.07;;;;;;;6.15;70.08;98830.38;8377119;28;20243;-80
2020/12/18 02:20:09;;;;;;;16.83;15.17;;;;;;;6.04;70.59;98830.53;8375226;28;20207;-79
2020/12/18 02:24:21;;;;;;;16.63;14.63;;;;;;;6.40;68.71;98826.63;8373548;28;20647;-79
2020/12/18 02:28:24;;;;;;;16.20;14.57;;;;;;;6.15;69.48;98827.81;8374304;28;20195;-79
2020/12/18 02:32:26;;;;;;;17.17;15.37;;;;;;;6.19;68.96;98827.75;8374950;28;20215;-79
2020/12/18 02:36:27;;;;;;;17.47;15.70;;;;;;;5.93;69.88;98824.63;8376875;28;20250;-79
2020/12/18 02:40:29;;;;;;;16.27;14.57;;;;;;;6.25;68.38;98814.81;8383182;28;20214;-79
2020/12/18 02:44:32;;;;;;;17.63;15.73;;;;;;;6.01;69.01;98815.97;8383628;28;20211;-79
2020/12/18 02:48:33;;;;;;;17.67;15.87;;;;;;;5.97;69.15;98809.16;8380984;28;20210;-79
2020/12/18 02:52:35;;;;;;;16.80;15.10;;;;;;;5.96;69.17;98810.06;8379655;28;20234;-79
2020/12/18 02:56:38;;;;;;;16.43;14.73;;;;;;;6.07;68.28;98821.06;8376091;28;20226;-78
2020/12/18 03:00:41;;;;;;;17.07;15.37;;;;;;;5.90;68.86;98827.22;8371385;28;20199;-78
2020/12/18 03:04:42;;;;;;;16.60;14.90;;;;;;;5.94;68.75;98831.47;8370390;28;20224;-77
2020/12/18 03:08:44;;;;;;;15.57;14.07;;;;;;;5.76;69.15;98829.97;8369864;28;20211;-78
2020/12/18 03:12:46;;;;;;;14.70;13.20;;;;;;;5.88;68.75;98816.97;8371075;28;20659;-78
2020/12/18 03:16:48;;;;;;;16.03;14.33;;;;;;;5.79;68.73;98822.22;8372132;28;20266;-79
2020/12/18 03:20:50;;;;;;;15.33;13.83;;;;;;;5.64;68.99;98821.53;8374274;28;20200;-80
2020/12/18 03:24:52;;;;;;;15.63;14.03;;;;;;;5.52;69.10;98823.34;8374101;28;20587;-80
2020/12/18 03:28:53;;;;;;;15.50;13.90;;;;;;;5.57;69.27;98822.44;8373642;28;20204;-80
2020/12/18 03:32:56;;;;;;;14.83;13.43;;;;;;;5.49;69.36;98819.94;8373777;28;20667;-79
2020/12/18 03:36:58;;;;;;;15.10;13.67;;;;;;;5.60;69.22;98825.00;8374428;28;20231;-79
2020/12/18 03:40:59;;;;;;;14.47;13.07;;;;;;;5.55;68.84;98813.91;8384483;28;20543;-78
2020/12/18 03:45:01;;;;;;;14.20;12.90;;;;;;;5.72;68.51;98818.03;8409867;28;20218;-78
2020/12/18 03:49:04;;;;;;;14.00;12.57;;;;;;;5.65;68.58;98819.78;8411009;28;20206;-79
2020/12/18 03:53:05;;;;;;;15.53;13.97;;;;;;;5.78;67.63;98828.22;8408061;28;20253;-79
2020/12/18 03:57:08;;;;;;;15.30;13.70;;;;;;;5.62;68.98;98837.84;8407620;28;20280;-79
2020/12/18 04:01:10;;;;;;;15.43;13.83;;;;;;;5.59;68.94;98830.13;8408249;28;20195;-79
2020/12/18 04:05:12;;;;;;;15.03;13.53;;;;;;;5.56;68.53;98822.44;8408399;28;20223;-79
2020/12/18 04:09:14;;;;;;;16.03;14.43;;;;;;;5.42;68.86;98827.75;8398855;28;20203;-80
2020/12/18 04:13:16;;;;;;;14.50;13.10;;;;;;;5.50;69.14;98823.38;8375972;28;20589;-79
2020/12/18 04:17:18;;;;;;;14.33;12.93;;;;;;;5.53;69.05;98833.63;8375807;28;20223;-80
2020/12/18 04:21:21;;;;;;;15.37;13.87;;;;;;;5.62;68.13;98830.97;8375655;28;20204;-79
2020/12/18 04:25:23;;;;;;;15.80;14.30;;;;;;;5.54;67.79;98824.19;8376654;28;20196;-79
2020/12/18 04:29:24;;;;;;;15.33;13.87;;;;;;;5.61;67.56;98815.56;8377362;28;20670;-79
2020/12/18 04:33:26;;;;;;;14.57;13.17;;;;;;;5.77;67.72;98835.09;8379230;28;20203;-80
2020/12/18 04:37:29;;;;;;;15.33;13.93;;;;;;;5.38;68.56;98844.06;8380854;28;20305;-79
2020/12/18 04:41:31;;;;;;;14.40;13.03;;;;;;;5.47;68.28;98841.41;8393094;28;20198;-80
2020/12/18 04:45:33;;;;;;;15.27;13.77;;;;;;;5.59;68.11;98840.41;8411319;28;20206;-81
2020/12/18 04:49:35;;;;;;;14.97;13.47;;;;;;;5.49;68.03;98843.06;8411906;28;20208;-79
2020/12/18 04:53:39;;;;;;;14.80;13.30;;;;;;;5.62;67.28;98848.09;8409924;28;20195;-80
2020/12/18 04:57:43;;;;;;;16.60;13.03;;;;;;;5.77;67.75;98845.38;8410588;28;20282;-79
2020/12/18 05:01:45;;;;;;;24.47;21.97;;;;;;;5.67;67.82;98842.06;8407509;28;20199;-78
2020/12/18 05:05:47;;;;;;;21.67;19.37;;;;;;;5.69;67.66;98852.28;8406610;28;20225;-79
2020/12/18 05:09:53;;;;;;;45.83;16.97;;;;;;;5.32;68.93;98839.81;8405767;28;20203;-78
2020/12/18 05:13:56;;;;;;;22.93;17.93;;;;;;;5.41;69.09;98850.03;8404788;28;20198;-79
2020/12/18 05:17:57;;;;;;;21.73;17.10;;;;;;;5.38;69.97;98851.75;8409880;28;20231;-79
2020/12/18 05:22:02;;;;;;;57.37;17.37;;;;;;;5.51;68.89;98855.91;8407366;28;20194;-79
2020/12/18 05:26:08;;;;;;;39.33;18.83;;;;;;;5.45;69.75;98848.28;8404069;28;20222;-78
2020/12/18 05:30:10;;;;;;;53.20;18.03;;;;;;;5.38;70.16;98856.91;8402905;28;20199;-78
2020/12/18 05:34:11;;;;;;;75.07;18.47;;;;;;;5.20;70.69;98852.78;8399440;28;20215;-78
2020/12/18 05:38:13;;;;;;;132.87;18.93;;;;;;;5.17;70.92;98845.94;8401425;28;20681;-78
2020/12/18 05:42:20;;;;;;;154.10;19.60;;;;;;;5.21;70.98;98847.63;8379488;28;20287;-78
2020/12/18 05:46:23;;;;;;;217.10;18.43;;;;;;;4.92;72.50;98859.84;8373916;28;20192;-78
2020/12/18 05:50:29;;;;;;;36.43;16.20;;;;;;;5.29;71.25;98845.84;8371393;28;20235;-78
2020/12/18 05:54:33;;;;;;;30.50;15.60;;;;;;;5.03;72.13;98853.75;8365529;28;20648;-78
2020/12/18 05:58:37;;;;;;;105.60;16.40;;;;;;;5.21;70.81;98857.03;8365551;28;20223;-78
2020/12/18 06:02:40;;;;;;;94.30;16.17;;;;;;;5.07;71.18;98867.44;8366810;28;20195;-78
2020/12/18 06:06:44;;;;;;;80.67;16.23;;;;;;;5.36;70.72;98869.75;8366535;28;20228;-78
2020/12/18 06:10:46;;;;;;;42.40;14.93;;;;;;;5.37;70.81;98870.59;8366473;28;20525;-78
2020/12/18 06:14:49;;;;;;;77.17;15.63;;;;;;;5.02;71.96;98874.31;8366440;28;20280;-78
2020/12/18 06:18:54;;;;;;;69.30;15.10;;;;;;;5.11;71.44;98865.69;8364871;28;20220;-78
2020/12/18 06:22:57;;;;;;;106.43;14.83;;;;;;;5.19;71.08;98862.19;8366094;28;20196;-78
2020/12/18 06:26:59;;;;;;;78.20;13.43;;;;;;;5.18;70.68;98868.19;8365728;28;20203;-78
2020/12/18 06:31:22;;;;;;;162.87;15.53;;;;;;;4.69;71.03;98869.41;8366799;28;20231;-78
2020/12/18 06:35:34;;;;;;;203.63;16.60;;;;;;;4.49;73.50;98866.97;8358968;28;20183;-79
2020/12/18 06:39:36;;;;;;;91.80;13.27;;;;;;;4.90;71.65;98868.41;8373567;28;20195;-78
2020/12/18 06:43:39;;;;;;;157.50;13.80;;;;;;;4.93;71.56;98870.13;8375098;28;20195;-79
2020/12/18 06:47:41;;;;;;;508.87;21.40;;;;;;;4.56;71.83;98866.91;8378042;28;20208;-79
2020/12/18 06:51:46;;;;;;;210.80;15.70;;;;;;;4.53;73.25;98861.78;8374857;28;20261;-78
2020/12/18 06:55:48;;;;;;;132.13;13.40;;;;;;;4.87;72.10;98865.00;8364060;28;20231;-78
2020/12/18 06:59:49;;;;;;;49.00;14.03;;;;;;;5.07;71.81;98867.44;8363216;28;20215;-77
2020/12/18 07:03:53;;;;;;;69.07;14.50;;;;;;;5.04;72.23;98863.16;8363049;28;20230;-78
2020/12/18 07:07:57;;;;;;;248.33;15.93;;;;;;;4.86;72.73;98866.72;8352402;28;20651;-77
2020/12/18 07:12:02;;;;;;;188.70;14.93;;;;;;;4.77;72.96;98871.91;8362370;28;20535;-77
2020/12/18 07:16:06;;;;;;;386.23;19.37;;;;;;;4.96;72.26;98869.22;8362771;28;20227;-78
2020/12/18 07:20:08;;;;;;;162.73;17.70;;;;;;;4.75;73.23;98865.94;8362581;28;20200;-78
2020/12/18 07:24:11;;;;;;;262.10;17.53;;;;;;;4.75;72.89;98876.22;8364427;28;20200;-78
2020/12/18 07:28:15;;;;;;;96.17;15.13;;;;;;;4.92;72.99;98873.53;8369153;28;20200;-78
2020/12/18 07:32:17;;;;;;;226.50;16.27;;;;;;;4.84;72.59;98886.41;8372164;28;20204;-79
2020/12/18 07:36:20;;;;;;;96.07;15.77;;;;;;;4.85;72.76;98877.00;8370588;28;20251;-78
2020/12/18 07:40:22;;;;;;;184.27;16.53;;;;;;;4.63;73.08;98882.28;8370475;28;20666;-78
2020/12/18 07:44:24;;;;;;;85.40;15.20;;;;;;;4.37;74.20;98874.69;8374076;28;20203;-79
2020/12/18 07:48:27;;;;;;;155.10;15.17;;;;;;;4.38;72.95;98879.00;8370437;28;20192;-78
2020/12/18 07:52:30;;;;;;;123.20;13.93;;;;;;;4.44;73.28;98870.41;8368281;28;20227;-79
2020/12/18 07:56:32;;;;;;;30.07;12.93;;;;;;;4.53;73.78;98872.91;8373333;28;20223;-78
2020/12/18 08:00:34;;;;;;;241.10;15.90;;;;;;;4.65;72.08;98877.97;8370905;28;20246;-79
2020/12/18 08:04:35;;;;;;;67.23;14.33;;;;;;;4.70;72.06;98876.25;8377392;28;20231;-79
2020/12/18 08:08:38;;;;;;;107.77;13.97;;;;;;;4.35;73.21;98873.84;8379284;28;20585;-79
2020/12/18 08:12:40;;;;;;;156.83;15.13;;;;;;;4.28;73.13;98872.19;8369410;28;20215;-77
2020/12/18 08:16:42;;;;;;;213.60;16.33;;;;;;;4.46;72.82;98872.09;8375136;28;20250;-79
2020/12/18 08:20:44;;;;;;;212.97;15.90;;;;;;;4.58;72.52;98881.44;8377840;28;20566;-79
2020/12/18 08:24:48;;;;;;;79.53;15.20;;;;;;;4.82;72.01;98883.00;8377353;28;20224;-78
2020/12/18 08:28:50;;;;;;;233.63;16.77;;;;;;;4.89;71.63;98874.41;8372741;28;20211;-78
2020/12/18 08:32:54;;;;;;;175.40;16.00;;;;;;;4.72;72.65;98871.06;8377951;28;20714;-78
2020/12/18 08:36:56;;;;;;;128.67;16.73;;;;;;;4.80;72.04;98877.03;8379622;28;20211;-79
2020/12/18 08:40:58;;;;;;;46.53;16.00;;;;;;;4.96;71.90;98859.81;8380459;28;20644;-79
2020/12/18 08:45:01;;;;;;;83.37;15.93;;;;;;;5.14;70.61;98876.81;8381550;28;20644;-79
2020/12/18 08:49:11;;;;;;;217.83;17.37;;;;;;;5.12;70.42;98886.19;8346863;28;20213;-80
2020/12/18 08:53:15;;;;;;;226.27;17.57;;;;;;;4.81;71.50;98886.41;8358344;28;20228;-77
2020/12/18 08:57:23;;;;;;;220.40;19.17;;;;;;;4.97;71.70;98873.47;8367623;28;20230;-79
2020/12/18 09:01:25;;;;;;;512.73;24.60;;;;;;;5.52;74.29;98870.47;8378066;28;20234;-79
2020/12/18 09:05:28;;;;;;;62.27;16.27;;;;;;;6.15;71.53;98871.53;8380060;28;20227;-77
2020/12/18 09:09:30;;;;;;;48.07;18.50;;;;;;;5.73;69.88;98868.53;8370059;28;20616;-78
2020/12/18 09:13:38;;;;;;;182.93;20.00;;;;;;;5.03;71.78;98865.75;8372453;28;20203;-79
2020/12/18 09:17:40;;;;;;;96.53;19.20;;;;;;;5.33;70.75;98867.22;8371229;28;20701;-77
2020/12/18 09:21:41;;;;;;;158.67;19.20;;;;;;;5.21;70.73;98873.28;8370435;28;20200;-77
2020/12/18 09:25:44;;;;;;;53.77;18.37;;;;;;;5.13;71.53;98866.53;8366671;28;20200;-77
2020/12/18 09:29:58;;;;;;;104.23;19.27;;;;;;;5.01;70.95;98873.47;8366678;28;20207;-77
2020/12/18 09:34:12;;;;;;;52.07;18.63;;;;;;;5.23;72.21;98861.28;8365836;28;20212;-77
2020/12/18 09:38:15;;;;;;;22.17;18.73;;;;;;;5.35;71.72;98873.19;8365508;28;20349;-76
2020/12/18 09:42:17;;;;;;;71.57;19.70;;;;;;;5.41;70.83;98878.28;8365345;28;20196;-77
2020/12/18 09:46:22;;;;;;;188.80;20.97;;;;;;;5.05;71.95;98869.16;8364981;28;20667;-77
2020/12/18 09:50:24;;;;;;;89.57;20.63;;;;;;;5.08;72.10;98866.56;8367126;28;20333;-78
2020/12/18 09:54:25;;;;;;;171.63;22.63;;;;;;;5.01;72.65;98868.34;8366723;28;20569;-77
2020/12/18 09:58:27;;;;;;;414.77;28.30;;;;;;;4.81;73.65;98868.47;8366111;28;20762;-77
2020/12/18 10:02:30;;;;;;;128.57;22.60;;;;;;;4.95;73.28;98852.09;8366135;28;20214;-77
2020/12/18 10:06:32;;;;;;;334.43;27.10;;;;;;;4.82;72.94;98862.47;8364278;28;20576;-76
2020/12/18 10:10:33;;;;;;;39.23;19.87;;;;;;;5.12;73.39;98857.97;8364203;28;20763;-77
2020/12/18 10:14:35;;;;;;;97.80;22.67;;;;;;;4.89;73.00;98855.56;8364122;28;20191;-76
2020/12/18 10:18:37;;;;;;;68.93;24.20;;;;;;;5.14;73.82;98853.69;8363648;28;20231;-78
2020/12/18 10:22:39;;;;;;;126.50;24.07;;;;;;;5.11;73.18;98850.28;8364435;28;20203;-77
2020/12/18 10:26:41;;;;;;;33.27;22.57;;;;;;;5.41;73.55;98839.75;8369647;28;20276;-76
2020/12/18 10:30:43;;;;;;;80.93;29.47;;;;;;;5.49;72.89;98834.53;8367924;28;20727;-75
2020/12/18 10:34:45;;;;;;;85.23;27.60;;;;;;;5.29;73.67;98835.56;8368559;28;20215;-76
2020/12/18 10:38:47;;;;;;;36.40;26.57;;;;;;;5.54;73.27;98829.31;8370020;28;20721;-76
2020/12/18 10:42:49;;;;;;;65.50;29.70;;;;;;;5.88;72.27;98827.25;8369797;28;20212;-76
2020/12/18 10:46:50;;;;;;;38.50;27.70;;;;;;;5.57;73.22;98831.88;8370467;28;20277;-77
2020/12/18 10:50:53;;;;;;;65.07;29.90;;;;;;;5.59;72.94;98835.28;8369155;28;20236;-76
2020/12/18 10:54:55;;;;;;;35.43;28.00;;;;;;;5.63;73.83;98831.81;8368676;28;20203;-77
2020/12/18 10:58:56;;;;;;;53.47;29.17;;;;;;;5.81;73.09;98835.91;8367031;28;20231;-78
2020/12/18 11:02:58;;;;;;;48.57;28.03;;;;;;;5.56;74.19;98827.59;8371536;28;20211;-78
2020/12/18 11:07:00;;;;;;;35.10;26.60;;;;;;;5.60;74.29;98830.13;8370575;28;20228;-77
2020/12/18 11:11:03;;;;;;;29.23;25.93;;;;;;;5.71;73.72;98831.72;8369891;28;20219;-78
2020/12/18 11:15:05;;;;;;;27.50;23.57;;;;;;;5.70;74.49;98812.03;8370265;28;20623;-78
2020/12/18 11:19:08;;;;;;;26.17;23.43;;;;;;;6.05;73.09;98822.81;8370216;28;20223;-78
2020/12/18 11:23:10;;;;;;;28.57;25.23;;;;;;;6.04;73.03;98815.94;8369750;28;20227;-78
2020/12/18 11:27:12;;;;;;;26.27;23.60;;;;;;;5.89;72.99;98818.66;8369756;28;20226;-77
2020/12/18 11:31:14;;;;;;;24.83;22.33;;;;;;;6.23;72.78;98819.13;8370171;28;20200;-78
2020/12/18 11:35:16;;;;;;;27.90;23.90;;;;;;;6.37;72.12;98806.06;8368982;28;20211;-77
2020/12/18 11:39:21;;;;;;;26.23;23.53;;;;;;;6.46;71.68;98803.38;8368888;28;20228;-77
2020/12/18 11:43:23;;;;;;;29.77;24.83;;;;;;;6.36;72.11;98803.50;8369304;28;20539;-77
2020/12/18 11:47:27;;;;;;;25.63;22.97;;;;;;;6.20;72.30;98798.59;8367306;28;20234;-78
2020/12/18 11:51:29;;;;;;;26.97;24.07;;;;;;;6.17;72.91;98790.94;8368602;28;20231;-77
2020/12/18 11:55:34;;;;;;;26.90;23.40;;;;;;;6.35;72.56;98788.97;8368653;28;20215;-78
2020/12/18 11:59:35;;;;;;;29.40;25.33;;;;;;;6.19;72.93;98778.06;8368409;28;20258;-79
2020/12/18 12:03:37;;;;;;;31.07;25.50;;;;;;;6.19;72.97;98784.03;8370722;28;20199;-78
2020/12/18 12:07:39;;;;;;;30.83;27.40;;;;;;;5.90;74.28;98779.22;8372239;28;20204;-78
2020/12/18 12:11:42;;;;;;;28.60;25.30;;;;;;;6.18;73.49;98776.34;8372285;28;20204;-78
2020/12/18 12:15:43;;;;;;;29.47;26.30;;;;;;;6.29;73.00;98766.75;8374282;28;20204;-77
2020/12/18 12:19:45;;;;;;;27.70;24.63;;;;;;;6.09;74.02;98764.44;8373362;28;20247;-78
2020/12/18 12:23:47;;;;;;;26.27;23.60;;;;;;;6.27;73.26;98765.94;8370706;28;20254;-78
2020/12/18 12:27:49;;;;;;;29.67;26.57;;;;;;;6.10;73.75;98762.75;8371294;28;20645;-78
2020/12/18 12:31:51;;;;;;;29.63;26.60;;;;;;;6.18;73.85;98763.47;8368720;28;20204;-78
2020/12/18 12:35:53;;;;;;;29.30;26.30;;;;;;;6.34;73.57;98756.38;8366696;28;20576;-77
2020/12/18 12:39:54;;;;;;;29.03;26.03;;;;;;;6.19;73.80;98755.75;8365531;28;20569;-78
2020/12/18 12:43:57;;;;;;;28.63;25.20;;;;;;;6.47;73.45;98742.47;8338983;28;20207;-78
2020/12/18 12:47:58;;;;;;;29.23;26.23;;;;;;;6.25;73.50;98740.22;8335910;28;20211;-79
2020/12/18 12:52:00;;;;;;;28.70;25.73;;;;;;;6.43;73.96;98739.09;8335953;28;20243;-78
2020/12/18 12:56:02;;;;;;;29.60;25.77;;;;;;;6.48;73.03;98722.75;8334805;28;20208;-78
2020/12/18 13:00:04;;;;;;;30.27;27.07;;;;;;;6.42;73.53;98721.13;8335043;28;20232;-78
2020/12/18 13:04:06;;;;;;;28.53;25.60;;;;;;;6.80;72.71;98720.50;8334447;28;20676;-78
2020/12/18 13:08:08;;;;;;;29.30;26.23;;;;;;;6.76;73.03;98715.41;8337906;28;20209;-78
2020/12/18 13:12:10;;;;;;;30.20;27.10;;;;;;;6.65;72.93;98710.44;8335862;28;20700;-78
2020/12/18 13:16:18;;;;;;;29.57;26.67;;;;;;;6.59;73.57;98710.56;8342407;28;20207;-78
2020/12/18 13:20:20;;;;;;;30.50;27.37;;;;;;;6.64;73.17;98714.75;8366568;28;20192;-78
2020/12/18 13:24:22;;;;;;;29.73;26.80;;;;;;;6.87;72.82;98707.50;8365751;28;20203;-78
2020/12/18 13:28:25;;;;;;;29.67;26.70;;;;;;;7.03;72.33;98714.09;8365860;28;20216;-78
2020/12/18 13:32:28;;;;;;;29.63;26.53;;;;;;;7.05;72.34;98707.19;8365973;28;20211;-78
2020/12/18 13:36:30;;;;;;;30.07;26.77;;;;;;;7.05;71.79;98697.72;8366408;28;20635;-78
2020/12/18 13:40:31;;;;;;;29.17;26.27;;;;;;;6.88;72.02;98698.91;8366402;28;20204;-78
2020/12/18 13:44:33;;;;;;;29.50;26.50;;;;;;;6.85;72.77;98692.06;8366572;28;20682;-78
2020/12/18 13:48:36;;;;;;;29.60;26.53;;;;;;;6.82;72.34;98693.00;8366395;28;20570;-78
2020/12/18 13:52:38;;;;;;;29.97;27.00;;;;;;;6.91;72.28;98686.84;8365429;28;20239;-78
2020/12/18 13:56:44;;;;;;;27.33;24.63;;;;;;;7.00;71.88;98686.66;8366378;28;20281;-78
2020/12/18 14:00:46;;;;;;;29.87;26.87;;;;;;;7.01;71.59;98683.22;8366467;28;20604;-78
2020/12/18 14:04:49;;;;;;;29.23;25.83;;;;;;;7.10;71.62;98676.19;8365665;28;20255;-78
2020/12/18 14:08:50;;;;;;;30.60;27.47;;;;;;;7.05;71.59;98674.53;8365526;28;20215;-78
2020/12/18 14:12:52;;;;;;;28.20;25.00;;;;;;;6.98;72.36;98672.13;8365525;28;20196;-78
2020/12/18 14:16:54;;;;;;;31.30;25.53;;;;;;;6.99;72.16;98666.09;8366147;28;20228;-78
2020/12/18 14:20:57;;;;;;;30.00;26.80;;;;;;;7.19;70.96;98666.53;8364924;28;20206;-78
2020/12/18 14:24:58;;;;;;;27.57;24.57;;;;;;;7.36;70.73;98665.38;8365714;28;20199;-78
2020/12/18 14:29:00;;;;;;;27.90;25.20;;;;;;;7.48;69.59;98672.00;8365217;28;20278;-78
2020/12/18 14:33:02;;;;;;;28.53;25.03;;;;;;;7.46;69.90;98676.34;8365833;28;20199;-78
2020/12/18 14:37:09;;;;;;;26.93;24.17;;;;;;;7.70;69.42;98660.34;8372579;28;20570;-78
2020/12/18 14:41:11;;;;;;;25.83;23.23;;;;;;;7.72;69.20;98661.16;8373480;28;20246;-78
2020/12/18 14:45:14;;;;;;;27.33;24.63;;;;;;;7.81;68.45;98665.28;8374600;28;20248;-78
2020/12/18 14:49:15;;;;;;;25.40;22.87;;;;;;;7.77;68.75;98666.25;8375821;28;20204;-78
2020/12/18 14:53:18;;;;;;;26.07;23.47;;;;;;;7.70;68.57;98664.66;8374517;28;20239;-78
2020/12/18 14:57:20;;;;;;;26.77;23.73;;;;;;;7.62;68.69;98672.56;8372188;28;20230;-78
2020/12/18 15:01:21;;;;;;;26.37;23.00;;;;;;;7.61;68.43;98653.66;8372931;28;20211;-78
2020/12/18 15:05:30;;;;;;;25.37;22.67;;;;;;;7.58;68.47;98668.38;8373624;28;20258;-78
2020/12/18 15:09:32;;;;;;;28.73;25.83;;;;;;;7.91;67.20;98664.19;8379257;28;20437;-78
2020/12/18 15:13:36;;;;;;;28.47;24.23;;;;;;;7.58;68.38;98658.91;8377498;28;20294;-78
2020/12/18 15:17:37;;;;;;;29.17;23.37;;;;;;;7.52;68.21;98658.16;8378822;28;20227;-78
2020/12/18 15:21:39;;;;;;;27.10;22.87;;;;;;;7.45;67.94;98660.03;8380100;28;20196;-78
2020/12/18 15:25:42;;;;;;;23.93;21.57;;;;;;;7.33;67.51;98655.13;8379206;28;20566;-78
2020/12/18 15:29:43;;;;;;;26.83;23.87;;;;;;;7.29;67.29;98662.09;8382063;28;20208;-78
2020/12/18 15:33:45;;;;;;;35.93;28.70;;;;;;;7.20;67.65;98660.53;8384836;28;20211;-78
2020/12/18 15:37:48;;;;;;;36.27;30.40;;;;;;;7.21;66.98;98666.50;8380061;28;20238;-79
2020/12/18 15:41:50;;;;;;;51.40;37.73;;;;;;;7.16;66.55;98661.47;8387476;28;20238;-79
2020/12/18 15:45:52;;;;;;;39.67;33.47;;;;;;;7.11;67.03;98663.28;8380728;28;20283;-79
2020/12/18 15:49:54;;;;;;;38.70;31.03;;;;;;;7.11;67.02;98668.44;8379436;28;20241;-79
2020/12/18 15:53:56;;;;;;;57.73;44.73;;;;;;;7.07;67.25;98671.09;8381726;28;20188;-79
2020/12/18 15:57:58;;;;;;;55.97;45.07;;;;;;;7.01;66.81;98664.34;8381236;28;20228;-79
2020/12/18 16:02:19;;;;;;;41.00;35.70;;;;;;;6.98;67.17;98670.38;8382835;28;20194;-79
2020/12/18 16:06:21;;;;;;;31.47;27.93;;;;;;;6.94;66.80;98667.91;8383170;28;20245;-79
2020/12/18 16:10:23;;;;;;;29.77;26.33;;;;;;;7.00;67.00;98666.03;8378782;28;20204;-79
2020/12/18 16:14:39;;;;;;;25.47;22.77;;;;;;;6.96;67.22;98664.41;8379872;28;20199;-79
2020/12/18 16:18:41;;;;;;;26.07;22.40;;;;;;;6.97;66.81;98668.69;8379270;28;20600;-79
2020/12/18 16:22:42;;;;;;;26.47;23.07;;;;;;;6.88;67.28;98663.72;8369436;28;20212;-79
2020/12/18 16:26:44;;;;;;;26.13;23.50;;;;;;;6.84;67.09;98667.22;8368733;28;20207;-78
2020/12/18 16:30:47;;;;;;;26.10;23.43;;;;;;;6.87;66.73;98662.00;8368817;28;20669;-78
2020/12/18 16:34:48;;;;;;;26.77;22.93;;;;;;;6.81;66.80;98652.66;8368198;28;20560;-78
2020/12/18 16:38:50;;;;;;;26.67;23.87;;;;;;;6.80;66.40;98653.56;8368337;28;20269;-79
2020/12/18 16:42:52;;;;;;;34.70;27.10;;;;;;;6.79;66.48;98649.25;8368498;28;20535;-78
2020/12/18 16:46:54;;;;;;;28.70;25.57;;;;;;;6.47;65.83;98652.41;8367522;28;20208;-78
2020/12/18 16:50:56;;;;;;;36.40;29.10;;;;;;;6.58;65.90;98650.50;8367682;28;20242;-78
2020/12/18 16:54:58;;;;;;;38.37;33.47;;;;;;;6.57;66.31;98653.97;8367561;28;20235;-78
2020/12/18 16:59:00;;;;;;;36.77;32.87;;;;;;;6.53;66.16;98654.91;8367688;28;20228;-78
2020/12/18 17:03:02;;;;;;;40.37;32.83;;;;;;;6.52;66.04;98648.03;8367400;28;20242;-78
2020/12/18 17:07:05;;;;;;;36.53;32.70;;;;;;;6.53;66.06;98643.72;8345340;28;20698;-77
2020/12/18 17:11:12;;;;;;;34.77;30.03;;;;;;;6.52;66.13;98654.91;8364614;28;20196;-78
2020/12/18 17:15:14;;;;;;;25.30;22.67;;;;;;;6.52;66.54;98650.59;8367821;28;20196;-77
2020/12/18 17:19:17;;;;;;;23.07;20.87;;;;;;;6.38;68.11;98648.28;8368933;28;20610;-78
2020/12/18 17:23:18;;;;;;;23.37;20.43;;;;;;;6.23;68.96;98645.94;8367449;28;20200;-78
2020/12/18 17:27:22;;;;;;;22.63;18.80;;;;;;;6.14;69.08;98643.53;8372815;28;20200;-79
2020/12/18 17:31:24;;;;;;;19.60;17.60;;;;;;;6.23;68.46;98640.81;8368812;28;20310;-77
2020/12/18 17:35:26;;;;;;;19.00;17.10;;;;;;;6.21;68.34;98645.97;8368605;28;20207;-77
2020/12/18 17:39:30;;;;;;;19.57;17.40;;;;;;;6.02;69.33;98645.41;8367117;28;20254;-76
2020/12/18 17:43:31;;;;;;;19.37;17.30;;;;;;;5.98;69.43;98645.50;8367566;28;20203;-77
2020/12/18 17:47:33;;;;;;;20.73;18.63;;;;;;;5.84;70.09;98651.63;8367062;28;20215;-76
2020/12/18 17:51:36;;;;;;;23.47;20.43;;;;;;;5.87;69.91;98650.75;8367495;28;20228;-80
2020/12/18 17:55:37;;;;;;;20.60;18.50;;;;;;;6.04;68.64;98666.81;8367624;28;20207;-78
2020/12/18 17:59:39;;;;;;;19.73;17.70;;;;;;;6.07;68.27;98663.31;8369153;28;20679;-79
2020/12/18 18:03:41;;;;;;;21.30;18.53;;;;;;;5.97;68.79;98666.91;8366211;28;20550;-78
2020/12/18 18:07:43;;;;;;;18.87;16.70;;;;;;;5.88;69.09;98662.72;8365672;28;20208;-79
2020/12/18 18:11:45;;;;;;;22.87;18.23;;;;;;;5.80;69.41;98660.25;8366287;28;20203;-78
2020/12/18 18:15:47;;;;;;;21.80;18.83;;;;;;;5.74;69.40;98657.78;8371493;28;20204;-80
2020/12/18 18:19:49;;;;;;;19.87;17.10;;;;;;;5.73;69.41;98662.94;8372629;28;20220;-79
2020/12/18 18:23:51;;;;;;;20.60;17.60;;;;;;;5.80;68.64;98656.84;8369187;28;20203;-79
2020/12/18 18:27:55;;;;;;;21.47;19.17;;;;;;;5.57;69.43;98659.72;8358829;28;20307;-78
2020/12/18 18:31:57;;;;;;;21.83;19.53;;;;;;;5.64;69.32;98648.50;8338328;28;20204;-79
2020/12/18 18:35:59;;;;;;;23.27;20.50;;;;;;;5.52;69.98;98646.94;8344517;28;20196;-79
2020/12/18 18:40:16;;;;;;;21.40;19.20;;;;;;;5.46;69.76;98641.88;8376028;28;20606;-79
2020/12/18 18:44:34;;;;;;;27.53;19.90;;;;;;;5.45;70.12;98642.75;8376605;28;20191;-80
2020/12/18 18:48:36;;;;;;;43.33;27.93;;;;;;;7.04;70.17;98639.38;8383469;28;20211;-79